Time;durP1;ratioP1;P1;durP2;ratioP2;P2;SDS_P1;SDS_P2;PMS_P1;PMS_P2;Temp;Humidity;BMP_temperature;BMP_pressure;BME280_temperature;BME280_humidity;BME280_pressure;Samples;Min_cycle;Max_cycle;Signal;HPM_P1;HPM_P2
2023/12/29 00:01:59;;;;;;;;;;;;;;;1.27;95.65;95922.25;5115271;28;977;-60
2023/12/29 00:04:25;;;;;;;;;;;;;;;1.31;94.92;95921.13;5115210;28;1023;-60
2023/12/29 00:06:51;;;;;;;;;;;;;;;1.43;94.82;95907.28;5115135;28;1088;-60
2023/12/29 00:09:19;;;;;;;;;;;;;;;1.53;94.82;95904.97;5115411;28;1059;-60
2023/12/29 00:11:47;;;;;;;;;;;;;;;1.54;94.18;95907.53;5115380;28;1072;-60
2023/12/29 00:14:13;;;;;;;;;;;;;;;1.41;94.19;95903.88;5114984;28;1024;-59
2023/12/29 00:16:38;;;;;;;;;;;;;;;1.42;93.96;95912.63;5114666;28;1910;-60
2023/12/29 00:19:04;;;;;;;;;;;;;;;1.46;94.43;95908.88;5114868;28;1072;-60
2023/12/29 00:21:30;;;;;;;;;;;;;;;1.46;94.19;95906.25;5114894;28;1052;-60
2023/12/29 00:23:56;;;;;;;;;;;;;;;1.49;94.14;95901.66;5115182;28;992;-60
2023/12/29 00:26:22;;;;;;;;;;;;;;;1.58;93.71;95897.66;5096567;28;1108;-60
2023/12/29 00:28:48;;;;;;;;;;;;;;;1.63;93.41;95905.28;5114807;28;1229;-60
2023/12/29 00:31:17;;;;;;;;;;;;;;;1.59;93.92;95911.69;5114659;28;1059;-60
2023/12/29 00:33:43;;;;;;;;;;;;;;;1.56;94.06;95910.09;5114987;28;1011;-60
2023/12/29 00:36:16;;;;;;;;;;;;;;;1.39;93.29;95902.28;5114768;28;1918;-60
2023/12/29 00:38:42;;;;;;;;;;;;;;;1.35;95.48;95907.72;5114573;28;1048;-60
2023/12/29 00:41:09;;;;;;;;;;;;;;;1.38;95.04;95909.31;5114430;28;1036;-59
2023/12/29 00:43:35;;;;;;;;;;;;;;;1.38;94.86;95916.38;5114575;28;1040;-60
2023/12/29 00:46:01;;;;;;;;;;;;;;;1.47;94.53;95921.97;5114615;28;948;-60
2023/12/29 00:48:27;;;;;;;;;;;;;;;1.28;94.71;95916.91;5114671;28;1056;-60
2023/12/29 00:50:53;;;;;;;;;;;;;;;1.26;94.72;95916.13;5114650;28;981;-60
2023/12/29 00:53:19;;;;;;;;;;;;;;;1.26;95.04;95905.59;5114357;28;981;-60
2023/12/29 00:55:45;;;;;;;;;;;;;;;1.24;93.84;95915.38;5114185;28;1989;-60
2023/12/29 00:58:11;;;;;;;;;;;;;;;1.28;94.98;95910.78;5114202;28;1041;-60
2023/12/29 01:00:37;;;;;;;;;;;;;;;1.02;94.50;95914.88;5114152;28;1064;-60
2023/12/29 01:03:03;;;;;;;;;;;;;;;0.87;95.60;95912.13;5096031;28;1048;-60
2023/12/29 01:05:29;;;;;;;;;;;;;;;0.78;96.35;95910.00;5114046;28;992;-60
2023/12/29 01:07:55;;;;;;;;;;;;;;;0.72;97.26;95915.59;5114365;28;976;-60
2023/12/29 01:10:21;;;;;;;;;;;;;;;0.87;97.66;95912.13;5114234;28;974;-60
2023/12/29 01:12:47;;;;;;;;;;;;;;;0.93;96.62;95917.06;5114044;28;1071;-60
2023/12/29 01:15:13;;;;;;;;;;;;;;;1.05;97.07;95914.69;5113710;28;1980;-60
2023/12/29 01:17:39;;;;;;;;;;;;;;;1.23;96.41;95911.03;5114203;28;972;-60
2023/12/29 01:20:05;;;;;;;;;;;;;;;1.08;93.56;95914.50;5114103;28;970;-60
2023/12/29 01:22:31;;;;;;;;;;;;;;;0.85;93.75;95927.16;5114027;28;1023;-60
2023/12/29 01:25:00;;;;;;;;;;;;;;;0.85;94.97;95927.16;5114074;28;978;-60
2023/12/29 01:27:27;;;;;;;;;;;;;;;0.94;95.68;95921.41;5113671;28;1206;-60
2023/12/29 01:29:53;;;;;;;;;;;;;;;1.07;96.78;95913.69;5113743;28;1064;-60
2023/12/29 01:32:19;;;;;;;;;;;;;;;1.09;95.70;95914.44;5113890;28;988;-60
2023/12/29 01:34:45;;;;;;;;;;;;;;;1.16;96.29;95913.16;5113949;28;1056;-60
2023/12/29 01:37:11;;;;;;;;;;;;;;;1.12;95.52;95905.50;5113696;28;1909;-60
2023/12/29 01:39:37;;;;;;;;;;;;;;;1.02;92.90;95906.97;5113383;28;973;-60
2023/12/29 01:42:03;;;;;;;;;;;;;;;0.84;92.40;95911.47;5113591;28;1095;-60
2023/12/29 01:44:29;;;;;;;;;;;;;;;0.69;93.76;95911.34;5113627;28;1011;-60
2023/12/29 01:46:56;;;;;;;;;;;;;;;0.80;95.24;95905.50;5113861;28;1060;-60
2023/12/29 01:49:22;;;;;;;;;;;;;;;0.90;94.88;95909.34;5113774;28;1044;-59
2023/12/29 01:51:53;;;;;;;;;;;;;;;0.75;91.22;95908.38;5113530;28;1033;-60
2023/12/29 01:54:20;;;;;;;;;;;;;;;0.63;92.81;95911.69;5113460;28;1028;-60
2023/12/29 01:56:46;;;;;;;;;;;;;;;0.63;92.98;95913.47;5113484;28;1914;-60
2023/12/29 01:59:12;;;;;;;;;;;;;;;0.52;92.48;95914.03;5113580;28;1048;-60
2023/12/29 02:01:41;;;;;;;;;;;;;;;0.38;94.18;95910.34;5113469;28;1080;-60
2023/12/29 02:04:08;;;;;;;;;;;;;;;0.46;94.80;95909.09;5095565;28;933;-60
2023/12/29 02:06:34;;;;;;;;;;;;;;;0.57;95.69;95910.22;5113628;28;1036;-60
2023/12/29 02:09:01;;;;;;;;;;;;;;;0.76;95.93;95903.97;5113317;28;1033;-60
2023/12/29 02:11:27;;;;;;;;;;;;;;;0.83;94.84;95900.06;5113672;28;1056;-60
2023/12/29 02:13:53;;;;;;;;;;;;;;;0.64;93.66;95900.22;5113554;28;1063;-60
2023/12/29 02:16:23;;;;;;;;;;;;;;;0.46;92.97;95896.78;5112985;28;1913;-60
2023/12/29 02:18:50;;;;;;;;;;;;;;;0.52;93.79;95885.94;5113534;28;965;-60
2023/12/29 02:21:16;;;;;;;;;;;;;;;0.58;93.72;95897.91;5113647;28;974;-60
2023/12/29 02:23:42;;;;;;;;;;;;;;;0.42;93.19;95904.91;5113403;28;1059;-60
2023/12/29 02:26:09;;;;;;;;;;;;;;;0.47;92.89;95893.22;5113188;28;1051;-60
2023/12/29 02:28:39;;;;;;;;;;;;;;;0.30;93.84;95895.88;5112967;28;1892;-60
2023/12/29 02:31:11;;;;;;;;;;;;;;;0.32;95.96;95896.66;5113078;28;1036;-60
2023/12/29 02:33:39;;;;;;;;;;;;;;;0.46;95.18;95896.78;5113424;28;973;-60
2023/12/29 02:36:06;;;;;;;;;;;;;;;0.53;94.05;95897.28;5112959;28;1994;-60
2023/12/29 02:38:32;;;;;;;;;;;;;;;0.47;93.58;95898.47;5113133;28;1007;-60
2023/12/29 02:40:59;;;;;;;;;;;;;;;0.44;93.66;95892.53;5113148;28;1035;-60
2023/12/29 02:43:25;;;;;;;;;;;;;;;0.44;94.49;95888.13;5113309;28;988;-60
2023/12/29 02:45:51;;;;;;;;;;;;;;;0.46;94.31;95883.63;5113002;28;1052;-60
2023/12/29 02:48:17;;;;;;;;;;;;;;;0.52;93.61;95880.66;5112895;28;2027;-60
2023/12/29 02:50:43;;;;;;;;;;;;;;;0.50;93.44;95864.13;5113592;28;985;-60
2023/12/29 02:53:08;;;;;;;;;;;;;;;0.40;93.15;95870.81;5116655;28;977;-60
2023/12/29 02:55:34;;;;;;;;;;;;;;;0.35;93.10;95875.47;5116528;28;1905;-60
2023/12/29 02:58:00;;;;;;;;;;;;;;;0.31;93.08;95863.41;5116775;28;976;-60
2023/12/29 03:00:26;;;;;;;;;;;;;;;0.30;94.04;95845.91;5116694;28;1011;-60
2023/12/29 03:02:52;;;;;;;;;;;;;;;0.31;94.50;95847.63;5116746;28;957;-60
2023/12/29 03:05:18;;;;;;;;;;;;;;;0.30;93.60;95854.63;5116249;28;1287;-60
2023/12/29 03:07:44;;;;;;;;;;;;;;;0.41;92.99;95842.72;5116352;28;1103;-60
2023/12/29 03:10:10;;;;;;;;;;;;;;;0.49;91.88;95841.34;5116537;28;985;-60
2023/12/29 03:12:36;;;;;;;;;;;;;;;0.49;92.85;95848.41;5116554;28;984;-60
2023/12/29 03:15:02;;;;;;;;;;;;;;;0.41;91.50;95846.19;5116082;28;1918;-60
2023/12/29 03:17:28;;;;;;;;;;;;;;;-0.06;93.89;95844.28;5116458;28;988;-61
2023/12/29 03:19:54;;;;;;;;;;;;;;;-0.23;95.56;95835.50;5116416;28;1004;-61
2023/12/29 03:22:21;;;;;;;;;;;;;;;-0.12;96.59;95847.22;5116274;28;1040;-62
2023/12/29 03:24:46;;;;;;;;;;;;;;;0.13;96.32;95852.06;5116007;28;1099;-61
2023/12/29 03:27:12;;;;;;;;;;;;;;;0.31;93.48;95839.72;5116055;28;1153;-61
2023/12/29 03:29:38;;;;;;;;;;;;;;;0.26;92.91;95847.00;5116236;28;1059;-61
2023/12/29 03:32:05;;;;;;;;;;;;;;;0.02;93.34;95851.75;5116113;28;992;-61
2023/12/29 03:34:31;;;;;;;;;;;;;;;0.02;92.94;95863.16;5115863;28;1063;-61
2023/12/29 03:36:57;;;;;;;;;;;;;;;0.02;92.72;95860.53;5115693;28;1901;-61
2023/12/29 03:39:23;;;;;;;;;;;;;;;-0.17;89.83;95862.38;5115669;28;1024;-61
2023/12/29 03:41:49;;;;;;;;;;;;;;;-0.21;90.98;95859.94;5115661;28;1003;-61
2023/12/29 03:44:15;;;;;;;;;;;;;;;-0.16;92.16;95861.47;5115599;28;1040;-60
2023/12/29 03:46:41;;;;;;;;;;;;;;;-0.10;92.24;95855.88;5115946;28;1043;-60
2023/12/29 03:49:07;;;;;;;;;;;;;;;-0.23;91.79;95856.53;5115780;28;1035;-61
2023/12/29 03:51:33;;;;;;;;;;;;;;;-0.35;92.24;95853.66;5115519;28;1052;-61
2023/12/29 03:53:59;;;;;;;;;;;;;;;-0.34;93.34;95847.47;5115483;28;1091;-62
2023/12/29 03:56:25;;;;;;;;;;;;;;;-0.43;91.42;95849.66;5115279;28;1910;-60
2023/12/29 03:58:51;;;;;;;;;;;;;;;-0.31;92.42;95837.66;5115711;28;1039;-61
2023/12/29 04:01:17;;;;;;;;;;;;;;;-0.09;92.95;95836.56;5115128;28;980;-61
2023/12/29 04:03:43;;;;;;;;;;;;;;;0.04;93.10;95829.75;5115271;28;1022;-61
2023/12/29 04:06:10;;;;;;;;;;;;;;;0.10;92.57;95826.78;5114693;28;1040;-62
2023/12/29 04:08:36;;;;;;;;;;;;;;;0.02;91.69;95836.88;5115178;28;1084;-61
2023/12/29 04:11:03;;;;;;;;;;;;;;;-0.06;92.61;95831.13;5115011;28;1044;-61
2023/12/29 04:13:29;;;;;;;;;;;;;;;-0.08;92.21;95835.63;5115269;28;990;-61
2023/12/29 04:15:55;;;;;;;;;;;;;;;-0.06;92.44;95839.03;5114850;28;1992;-61
2023/12/29 04:18:21;;;;;;;;;;;;;;;-0.14;92.01;95833.31;5115198;28;1108;-61
2023/12/29 04:20:48;;;;;;;;;;;;;;;-0.43;93.19;95833.88;5115247;28;1042;-61
2023/12/29 04:23:14;;;;;;;;;;;;;;;-0.57;94.48;95838.97;5114780;28;1029;-61
2023/12/29 04:25:40;;;;;;;;;;;;;;;-0.42;94.87;95835.59;5096677;28;1052;-60
2023/12/29 04:28:06;;;;;;;;;;;;;;;-0.16;94.03;95840.44;5114868;28;1275;-60
2023/12/29 04:30:32;;;;;;;;;;;;;;;-0.09;93.72;95841.81;5114709;28;1095;-61
2023/12/29 04:32:58;;;;;;;;;;;;;;;-0.14;93.45;95838.56;5114546;28;1130;-60
2023/12/29 04:35:24;;;;;;;;;;;;;;;-0.29;94.63;95842.84;5114517;28;1934;-60
2023/12/29 04:37:50;;;;;;;;;;;;;;;-0.30;94.58;95834.09;5114607;28;1023;-59
2023/12/29 04:40:16;;;;;;;;;;;;;;;-0.41;94.91;95832.03;5114387;28;969;-60
2023/12/29 04:42:43;;;;;;;;;;;;;;;-0.43;91.62;95840.91;5114758;28;1024;-60
2023/12/29 04:45:10;;;;;;;;;;;;;;;-0.71;89.85;95839.66;5114544;28;1072;-59
2023/12/29 04:47:36;;;;;;;;;;;;;;;-0.85;91.31;95842.97;5114424;28;1052;-59
2023/12/29 04:50:02;;;;;;;;;;;;;;;-1.04;93.16;95842.16;5114593;28;1059;-60
2023/12/29 04:52:28;;;;;;;;;;;;;;;-0.91;94.25;95839.78;5114056;28;1041;-60
2023/12/29 04:54:54;;;;;;;;;;;;;;;-1.06;94.83;95844.88;5114237;28;1055;-61
2023/12/29 04:57:20;;;;;;;;;;;;;;;-1.20;94.86;95855.16;5114356;28;1902;-59
2023/12/29 04:59:46;;;;;;;;;;;;;;;-1.35;95.42;95848.00;5114409;28;1028;-59
2023/12/29 05:02:13;;;;;;;;;;;;;;;-1.32;95.35;95838.22;5114267;28;1043;-59
2023/12/29 05:04:41;;;;;;;;;;;;;;;-1.22;96.17;95841.25;5112726;28;1134;-61
2023/12/29 05:07:08;;;;;;;;;;;;;;;-1.11;95.43;95844.22;5114454;28;968;-60
2023/12/29 05:09:34;;;;;;;;;;;;;;;-1.03;94.57;95843.84;5113978;28;1023;-59
2023/12/29 05:12:00;;;;;;;;;;;;;;;-1.10;94.44;95845.94;5114038;28;1032;-59
2023/12/29 05:14:26;;;;;;;;;;;;;;;-1.22;91.62;95851.75;5114645;27;1238;-60
2023/12/29 05:16:52;;;;;;;;;;;;;;;-1.37;92.01;95853.31;5134747;27;1910;-60
2023/12/29 05:19:18;;;;;;;;;;;;;;;-1.44;92.76;95851.88;5134546;27;981;-60
2023/12/29 05:21:44;;;;;;;;;;;;;;;-1.49;93.82;95844.25;5116356;27;1056;-60
2023/12/29 05:24:10;;;;;;;;;;;;;;;-1.39;94.05;95853.38;5134252;27;969;-60
2023/12/29 05:26:36;;;;;;;;;;;;;;;-1.28;93.23;95850.28;5134588;27;1040;-59
2023/12/29 05:29:03;;;;;;;;;;;;;;;-1.15;91.85;95849.69;5117573;27;1212;-60
2023/12/29 05:31:29;;;;;;;;;;;;;;;-1.38;88.06;95854.25;5113761;28;1048;-59
2023/12/29 05:33:55;;;;;;;;;;;;;;;-1.42;88.98;95847.47;5114051;28;1051;-59
2023/12/29 05:36:21;;;;;;;;;;;;;;;-1.21;91.93;95848.22;5113635;28;1910;-59
2023/12/29 05:38:47;;;;;;;;;;;;;;;-1.26;89.88;95842.31;5113614;28;1037;-60
2023/12/29 05:41:14;;;;;;;;;;;;;;;-1.23;89.95;95852.69;5113572;28;1020;-60
2023/12/29 05:43:40;;;;;;;;;;;;;;;-1.21;89.80;95845.59;5113668;28;1119;-60
2023/12/29 05:46:09;;;;;;;;;;;;;;;-1.15;90.97;95847.06;5113962;28;1208;-60
2023/12/29 05:48:35;;;;;;;;;;;;;;;-1.13;89.89;95851.31;5113844;28;906;-59
2023/12/29 05:51:05;;;;;;;;;;;;;;;-1.29;89.00;95851.22;5113665;28;1025;-60
2023/12/29 05:53:31;;;;;;;;;;;;;;;-1.47;89.96;95860.75;5113722;28;1063;-59
2023/12/29 05:55:57;;;;;;;;;;;;;;;-1.36;90.90;95859.44;5095719;28;1988;-59
2023/12/29 05:58:23;;;;;;;;;;;;;;;-1.28;90.67;95857.28;5095566;28;981;-60
2023/12/29 06:00:50;;;;;;;;;;;;;;;-1.33;89.31;95856.66;5113638;28;1004;-59
2023/12/29 06:03:16;;;;;;;;;;;;;;;-1.46;86.82;95841.50;5113485;28;985;-59
2023/12/29 06:05:42;;;;;;;;;;;;;;;-1.61;88.12;95847.44;5113433;28;1036;-61
2023/12/29 06:08:08;;;;;;;;;;;;;;;-1.45;89.69;95845.81;5113351;28;1049;-60
2023/12/29 06:10:36;;;;;;;;;;;;;;;-1.38;89.73;95846.38;5113578;28;966;-60
2023/12/29 06:13:03;;;;;;;;;;;;;;;-1.85;88.08;95834.53;5112588;28;980;-60
2023/12/29 06:15:29;;;;;;;;;;;;;;;-1.77;90.34;95829.78;5112884;28;1984;-60
2023/12/29 06:17:56;;;;;;;;;;;;;;;-1.75;90.62;95834.94;5113444;28;993;-60
2023/12/29 06:20:22;;;;;;;;;;;;;;;-1.50;92.58;95829.44;5113200;28;1112;-60
2023/12/29 06:22:48;;;;;;;;;;;;;;;-1.38;93.56;95831.50;5113258;28;1062;-60
2023/12/29 06:25:15;;;;;;;;;;;;;;;-1.17;93.60;95834.03;5114534;28;1107;-60
2023/12/29 06:27:41;;;;;;;;;;;;;;;-1.14;93.70;95833.84;5117234;28;1154;-60
2023/12/29 06:30:08;;;;;;;;;;;;;;;-1.04;92.16;95837.75;5117101;28;981;-60
2023/12/29 06:32:34;;;;;;;;;;;;;;;-1.05;91.81;95841.28;5116986;28;1052;-60
2023/12/29 06:35:00;;;;;;;;;;;;;;;-1.00;93.07;95836.69;5117063;28;986;-60
2023/12/29 06:37:26;;;;;;;;;;;;;;;-1.17;93.27;95841.91;5098919;28;1910;-60
2023/12/29 06:39:53;;;;;;;;;;;;;;;-1.51;93.57;95843.47;5117167;28;1011;-60
2023/12/29 06:42:19;;;;;;;;;;;;;;;-1.57;93.10;95838.53;5116804;28;988;-60
2023/12/29 06:44:45;;;;;;;;;;;;;;;-1.71;93.83;95830.41;5117173;28;969;-60
2023/12/29 06:47:12;;;;;;;;;;;;;;;-1.61;95.50;95834.34;5116735;28;964;-60
2023/12/29 06:49:38;;;;;;;;;;;;;;;-1.23;93.72;95826.44;5116692;28;1041;-60
2023/12/29 06:52:05;;;;;;;;;;;;;;;-0.95;92.63;95828.56;5116655;28;1028;-61
2023/12/29 06:54:31;;;;;;;;;;;;;;;-0.49;91.23;95821.06;5116788;28;1043;-60
2023/12/29 06:56:57;;;;;;;;;;;;;;;0.06;88.35;95822.63;5116479;28;1996;-60
2023/12/29 06:59:23;;;;;;;;;;;;;;;1.87;81.95;95819.47;5116408;28;1039;-60
2023/12/29 07:01:49;;;;;;;;;;;;;;;5.15;67.59;95826.97;5116792;28;969;-58
2023/12/29 07:04:15;;;;;;;;;;;;;;;7.78;56.73;95845.66;5116353;28;1041;-58
2023/12/29 07:06:41;;;;;;;;;;;;;;;9.47;50.50;95857.00;5098339;28;1044;-59
2023/12/29 07:09:08;;;;;;;;;;;;;;;9.76;49.19;95867.72;5116567;28;1059;-59
2023/12/29 07:11:35;;;;;;;;;;;;;;;9.99;47.26;95867.47;5116373;28;977;-59
2023/12/29 07:14:01;;;;;;;;;;;;;;;9.42;48.39;95861.88;5116380;28;966;-59
2023/12/29 07:16:27;;;;;;;;;;;;;;;8.23;50.52;95857.91;5115932;28;1914;-58
2023/12/29 07:18:53;;;;;;;;;;;;;;;6.12;56.81;95842.84;5116204;28;981;-59
2023/12/29 07:21:19;;;;;;;;;;;;;;;4.66;61.94;95825.19;5115982;28;1072;-59
2023/12/29 07:23:45;;;;;;;;;;;;;;;4.41;63.96;95818.94;5098085;28;1008;-58
2023/12/29 07:26:11;;;;;;;;;;;;;;;5.66;60.24;95820.59;5115736;28;976;-58
2023/12/29 07:28:37;;;;;;;;;;;;;;;7.12;56.00;95833.25;5097644;28;1229;-58
2023/12/29 07:31:03;;;;;;;;;;;;;;;6.67;56.50;95838.56;5116223;28;977;-58
2023/12/29 07:33:30;;;;;;;;;;;;;;;5.50;61.33;95826.16;5116098;28;1052;-58
2023/12/29 07:35:56;;;;;;;;;;;;;;;4.09;67.51;95815.88;5097434;28;1917;-58
2023/12/29 07:38:23;;;;;;;;;;;;;;;3.00;73.52;95815.16;5115362;28;1007;-58
2023/12/29 07:40:49;;;;;;;;;;;;;;;2.77;75.31;95822.78;5115796;28;1036;-57
2023/12/29 07:43:15;;;;;;;;;;;;;;;2.22;78.42;95836.75;5115807;28;976;-58
2023/12/29 07:45:43;;;;;;;;;;;;;;;1.73;81.47;95844.03;5097310;28;969;-58
2023/12/29 07:48:09;;;;;;;;;;;;;;;1.94;80.68;95835.81;5097428;28;1052;-58
2023/12/29 07:50:35;;;;;;;;;;;;;;;1.90;80.81;95840.41;5115332;28;1115;-58
2023/12/29 07:53:02;;;;;;;;;;;;;;;1.87;81.85;95837.94;5097648;28;1052;-58
2023/12/29 07:55:30;;;;;;;;;;;;;;;1.70;83.20;95831.03;5115272;28;1984;-58
2023/12/29 07:57:56;;;;;;;;;;;;;;;1.44;87.20;95829.06;5115014;28;1057;-58
2023/12/29 08:00:23;;;;;;;;;;;;;;;1.46;88.23;95824.56;5115207;28;1103;-58
2023/12/29 08:02:49;;;;;;;;;;;;;;;1.62;88.90;95825.38;5115524;28;1048;-58
2023/12/29 08:05:16;;;;;;;;;;;;;;;1.90;89.72;95827.22;5115067;28;973;-57
2023/12/29 08:07:43;;;;;;;;;;;;;;;2.22;89.16;95823.56;5097069;28;1111;-58
2023/12/29 08:10:09;;;;;;;;;;;;;;;2.39;90.13;95820.75;5115224;28;1015;-58
2023/12/29 08:12:35;;;;;;;;;;;;;;;2.45;90.61;95819.53;5114930;28;1048;-57
2023/12/29 08:15:02;;;;;;;;;;;;;;;2.53;90.13;95817.25;5114963;28;1265;-58
2023/12/29 08:17:29;;;;;;;;;;;;;;;2.50;90.70;95814.78;5114773;28;1909;-58
2023/12/29 08:19:55;;;;;;;;;;;;;;;2.32;90.90;95816.78;5114845;28;1092;-58
2023/12/29 08:22:21;;;;;;;;;;;;;;;2.44;89.85;95818.66;5115043;28;974;-58
2023/12/29 08:24:47;;;;;;;;;;;;;;;2.32;91.14;95815.00;5114867;28;1075;-58
2023/12/29 08:27:13;;;;;;;;;;;;;;;2.20;92.35;95814.91;5115183;28;1220;-58
2023/12/29 08:29:39;;;;;;;;;;;;;;;2.27;91.53;95810.94;5114867;28;1020;-58
2023/12/29 08:32:06;;;;;;;;;;;;;;;2.25;92.34;95818.94;5114693;28;921;-58
2023/12/29 08:34:32;;;;;;;;;;;;;;;2.50;90.31;95813.03;5114571;28;1032;-58
2023/12/29 08:36:58;;;;;;;;;;;;;;;2.73;89.05;95818.63;5114780;28;2001;-57
2023/12/29 08:39:24;;;;;;;;;;;;;;;2.98;89.22;95820.56;5114758;28;976;-58
2023/12/29 08:41:50;;;;;;;;;;;;;;;3.18;87.43;95835.13;5114824;28;1044;-58
2023/12/29 08:44:16;;;;;;;;;;;;;;;3.16;86.99;95826.47;5114684;28;1035;-58
2023/12/29 08:46:42;;;;;;;;;;;;;;;3.33;86.23;95830.66;5114403;28;1116;-57
2023/12/29 08:49:08;;;;;;;;;;;;;;;3.18;87.06;95829.00;5114375;28;1079;-58
2023/12/29 08:51:34;;;;;;;;;;;;;;;3.22;87.51;95826.06;5114508;28;1063;-58
2023/12/29 08:54:00;;;;;;;;;;;;;;;2.99;88.66;95827.53;5114643;28;1039;-58
2023/12/29 08:56:28;;;;;;;;;;;;;;;3.04;89.03;95838.66;5114309;28;1898;-58
2023/12/29 08:58:53;;;;;;;;;;;;;;;3.42;86.78;95837.13;5114687;28;1048;-58
2023/12/29 09:01:19;;;;;;;;;;;;;;;3.39;87.06;95838.16;5114375;28;972;-58
2023/12/29 09:03:45;;;;;;;;;;;;;;;3.74;86.29;95836.78;5114045;28;1045;-58
2023/12/29 09:06:11;;;;;;;;;;;;;;;3.89;84.07;95828.69;5114208;28;984;-58
2023/12/29 09:08:37;;;;;;;;;;;;;;;3.95;83.97;95840.66;5114034;28;1095;-58
2023/12/29 09:11:04;;;;;;;;;;;;;;;3.90;85.38;95826.88;5114011;28;1071;-58
2023/12/29 09:13:30;;;;;;;;;;;;;;;3.89;84.98;95825.19;5114212;28;1051;-57
2023/12/29 09:15:56;;;;;;;;;;;;;;;3.89;84.92;95812.81;5113691;28;2003;-58
2023/12/29 09:18:23;;;;;;;;;;;;;;;4.09;84.76;95811.44;5113714;28;1214;-58
2023/12/29 09:20:49;;;;;;;;;;;;;;;4.31;83.56;95807.31;5113909;28;1055;-58
2023/12/29 09:23:15;;;;;;;;;;;;;;;4.48;83.02;95793.75;5114087;28;972;-58
2023/12/29 09:25:41;;;;;;;;;;;;;;;4.49;82.04;95799.88;5114059;28;1033;-58
2023/12/29 09:28:07;;;;;;;;;;;;;;;4.73;82.29;95801.75;5113637;28;1158;-57
2023/12/29 09:30:33;;;;;;;;;;;;;;;5.01;80.69;95785.56;5113906;28;1039;-57
2023/12/29 09:32:59;;;;;;;;;;;;;;;5.16;79.35;95796.84;5113874;28;1008;-57
2023/12/29 09:35:26;;;;;;;;;;;;;;;5.64;77.39;95790.69;5113738;28;1973;-58
2023/12/29 09:37:52;;;;;;;;;;;;;;;5.95;73.66;95781.25;5113929;28;1040;-57
2023/12/29 09:40:18;;;;;;;;;;;;;;;6.41;72.72;95780.38;5113798;28;980;-57
2023/12/29 09:42:47;;;;;;;;;;;;;;;6.75;72.16;95775.03;5113665;28;1052;-57
2023/12/29 09:45:13;;;;;;;;;;;;;;;6.79;71.92;95778.28;5113495;28;1028;-57
2023/12/29 09:47:40;;;;;;;;;;;;;;;7.08;71.60;95775.13;5113774;28;1019;-57
2023/12/29 09:50:13;;;;;;;;;;;;;;;7.43;70.66;95764.22;5095762;28;1072;-57
2023/12/29 09:52:39;;;;;;;;;;;;;;;7.74;68.42;95759.00;5113746;28;1060;-57
2023/12/29 09:55:09;;;;;;;;;;;;;;;7.72;68.75;95755.63;5113733;28;985;-57
2023/12/29 09:57:36;;;;;;;;;;;;;;;7.94;68.14;95752.00;5113349;28;1905;-57
2023/12/29 10:00:02;;;;;;;;;;;;;;;8.08;67.75;95746.38;5114443;28;1036;-57
2023/12/29 10:02:28;;;;;;;;;;;;;;;8.35;66.73;95759.13;5117489;28;1037;-58
2023/12/29 10:04:54;;;;;;;;;;;;;;;8.57;67.06;95746.63;5117769;28;962;-58
2023/12/29 10:07:25;;;;;;;;;;;;;;;8.47;67.06;95735.09;5117403;28;1095;-58
2023/12/29 10:09:58;;;;;;;;;;;;;;;8.79;67.23;95733.09;5117580;28;976;-58
2023/12/29 10:12:25;;;;;;;;;;;;;;;8.96;65.57;95726.25;5117868;28;1180;-58
2023/12/29 10:15:05;;;;;;;;;;;;;;;9.03;65.80;95718.56;5117486;28;1104;-58
2023/12/29 10:17:32;;;;;;;;;;;;;;;9.23;65.49;95714.09;5117411;28;1905;-58
2023/12/29 10:20:21;;;;;;;;;;;;;;;9.38;64.93;95714.53;5117316;28;921;-58
2023/12/29 10:22:56;;;;;;;;;;;;;;;9.06;66.77;95699.59;5117054;28;2017;-58
2023/12/29 10:25:22;;;;;;;;;;;;;;;9.45;66.92;95699.63;5117070;28;1024;-57
2023/12/29 10:27:48;;;;;;;;;;;;;;;9.62;66.13;95699.91;5117404;28;1213;-58
2023/12/29 10:30:15;;;;;;;;;;;;;;;9.77;66.73;95699.34;5117004;28;1040;-58
2023/12/29 10:32:41;;;;;;;;;;;;;;;10.00;65.43;95707.03;5117050;28;1020;-58
2023/12/29 10:35:07;;;;;;;;;;;;;;;10.16;64.68;95711.75;5117026;28;1039;-58
2023/12/29 10:37:33;;;;;;;;;;;;;;;9.65;66.13;95699.63;5116764;28;1983;-58
2023/12/29 10:39:59;;;;;;;;;;;;;;;9.69;65.90;95701.03;5117425;28;1040;-57
2023/12/29 10:42:25;;;;;;;;;;;;;;;9.50;66.66;95701.88;5116779;28;1040;-57
2023/12/29 10:45:04;;;;;;;;;;;;;;;9.70;65.82;95694.72;5117173;28;969;-57
2023/12/29 10:47:30;;;;;;;;;;;;;;;9.74;65.48;95690.75;5117067;28;1052;-57
2023/12/29 10:49:58;;;;;;;;;;;;;;;9.55;66.13;95684.44;5117057;28;1055;-57
2023/12/29 10:52:24;;;;;;;;;;;;;;;9.60;66.19;95677.84;5116493;28;1087;-57
2023/12/29 10:55:03;;;;;;;;;;;;;;;9.91;64.51;95674.00;5116622;28;1036;-57
2023/12/29 10:57:29;;;;;;;;;;;;;;;10.03;63.80;95663.97;5116810;28;1913;-57
2023/12/29 10:59:56;;;;;;;;;;;;;;;9.75;64.79;95652.38;5116678;28;1059;-57
2023/12/29 11:02:22;;;;;;;;;;;;;;;10.00;65.12;95647.41;5098346;28;1071;-58
2023/12/29 11:04:49;;;;;;;;;;;;;;;10.22;64.05;95641.69;5116387;28;1111;-58
2023/12/29 11:07:15;;;;;;;;;;;;;;;10.47;64.46;95636.69;5116302;28;1032;-57
2023/12/29 11:09:42;;;;;;;;;;;;;;;10.51;63.57;95636.25;5116705;28;974;-57
2023/12/29 11:12:09;;;;;;;;;;;;;;;10.32;64.00;95631.84;5115071;28;965;-57
2023/12/29 11:14:35;;;;;;;;;;;;;;;10.22;65.61;95622.16;5116339;28;1068;-58
2023/12/29 11:17:01;;;;;;;;;;;;;;;10.20;64.83;95619.63;5116201;28;1988;-57
2023/12/29 11:19:27;;;;;;;;;;;;;;;10.11;66.06;95609.81;5116320;28;1057;-57
2023/12/29 11:21:56;;;;;;;;;;;;;;;10.39;64.65;95612.53;5116441;28;1045;-58
2023/12/29 11:24:22;;;;;;;;;;;;;;;10.78;63.70;95607.81;5116182;28;977;-57
2023/12/29 11:26:52;;;;;;;;;;;;;;;11.00;63.29;95605.66;5116059;28;1036;-58
2023/12/29 11:29:18;;;;;;;;;;;;;;;11.11;62.26;95600.94;5098080;28;1179;-57
2023/12/29 11:31:48;;;;;;;;;;;;;;;11.23;61.52;95606.03;5116050;28;1016;-57
2023/12/29 11:34:14;;;;;;;;;;;;;;;11.21;60.86;95608.91;5115793;28;1076;-57
2023/12/29 11:36:43;;;;;;;;;;;;;;;10.80;62.96;95605.81;5115790;28;1902;-57
2023/12/29 11:39:12;;;;;;;;;;;;;;;10.53;63.54;95604.03;5116107;28;977;-58
2023/12/29 11:41:41;;;;;;;;;;;;;;;10.36;62.94;95613.69;5116076;28;966;-57
2023/12/29 11:44:07;;;;;;;;;;;;;;;10.37;63.09;95604.66;5097789;28;996;-57
2023/12/29 11:46:37;;;;;;;;;;;;;;;10.65;61.66;95600.13;5115533;28;1033;-57
2023/12/29 11:49:04;;;;;;;;;;;;;;;10.62;60.86;95597.75;5115947;28;1044;-57
2023/12/29 11:51:35;;;;;;;;;;;;;;;10.83;61.22;95593.97;5115733;28;1048;-58
2023/12/29 11:54:02;;;;;;;;;;;;;;;11.01;60.27;95585.97;5115527;28;1003;-57
2023/12/29 11:56:32;;;;;;;;;;;;;;;11.10;60.43;95580.53;5115331;28;1984;-57
2023/12/29 11:59:12;;;;;;;;;;;;;;;11.22;60.05;95577.63;5115748;28;1048;-57
2023/12/29 12:01:38;;;;;;;;;;;;;;;11.40;58.72;95581.13;5115476;28;1083;-57
2023/12/29 12:04:04;;;;;;;;;;;;;;;11.36;58.26;95585.06;5115555;28;977;-57
2023/12/29 12:06:37;;;;;;;;;;;;;;;11.35;58.77;95582.56;5097439;28;1011;-57
2023/12/29 12:09:36;;;;;;;;;;;;;;;11.09;57.66;95573.47;5097344;28;977;-58
2023/12/29 12:12:03;;;;;;;;;;;;;;;11.02;59.69;95563.53;5080922;28;1127;-57
2023/12/29 12:14:51;;;;;;;;;;;;;;;11.14;60.19;95560.47;5115162;28;1100;-58
2023/12/29 12:17:28;;;;;;;;;;;;;;;11.23;61.08;95557.88;5115106;28;1918;-58
2023/12/29 12:19:58;;;;;;;;;;;;;;;11.13;61.03;95558.81;5115077;28;1044;-58
2023/12/29 12:22:24;;;;;;;;;;;;;;;10.93;60.33;95557.28;5114565;28;1048;-57
2023/12/29 12:24:55;;;;;;;;;;;;;;;10.89;59.42;95555.94;5115385;28;1056;-57
2023/12/29 12:27:25;;;;;;;;;;;;;;;10.99;59.65;95562.03;5114969;28;1161;-57
2023/12/29 12:29:57;;;;;;;;;;;;;;;11.00;59.66;95555.66;5115449;28;1044;-58
2023/12/29 12:32:23;;;;;;;;;;;;;;;11.01;59.67;95549.34;5114999;28;1044;-57
2023/12/29 12:34:49;;;;;;;;;;;;;;;11.00;60.83;95555.66;5114988;28;1044;-57
2023/12/29 12:37:22;;;;;;;;;;;;;;;10.93;60.22;95554.63;5114773;28;1991;-57
2023/12/29 12:39:49;;;;;;;;;;;;;;;10.91;59.05;95561.97;5115014;28;1048;-57
2023/12/29 12:42:19;;;;;;;;;;;;;;;10.81;59.49;95554.00;5114667;28;1048;-58
2023/12/29 12:45:04;;;;;;;;;;;;;;;10.80;59.86;95560.34;5114696;28;972;-57
2023/12/29 12:47:36;;;;;;;;;;;;;;;10.73;61.47;95546.72;5114768;28;1046;-57
2023/12/29 12:50:04;;;;;;;;;;;;;;;10.60;61.49;95548.09;5114774;28;996;-57
2023/12/29 12:52:33;;;;;;;;;;;;;;;10.49;62.52;95550.00;5114492;28;973;-58
2023/12/29 12:54:59;;;;;;;;;;;;;;;10.37;62.76;95545.03;5114481;28;1210;-58
2023/12/29 12:57:25;;;;;;;;;;;;;;;10.36;62.91;95549.53;5114460;28;1991;-57
2023/12/29 12:59:53;;;;;;;;;;;;;;;10.31;61.98;95543.78;5114216;28;978;-57
2023/12/29 13:02:19;;;;;;;;;;;;;;;10.32;60.55;95546.31;5114431;28;984;-58
2023/12/29 13:04:46;;;;;;;;;;;;;;;10.40;62.03;95545.56;5114354;28;969;-57